Torrejon de Ardoz, Spain
Current Conditions -  °F | °C
As of 2:00 AM on Sunday 26 Oct 2014 (Local Time) from LETO Reporting Station
Clear Clear  
Wind Chill: 55°   Ceiling: Unl
Heat Index: 55°   Visibility: 6mi
Dew Point: 46°   Wind: 3mph
Humidity: 72%   Direction: 50°NE
Pressure: 30.24"   Gusts: NA
Location:  40.46°N, 3.47°W
Report Text: LETO 260000Z 05003KT CAVOK 13/08 Q1024 NOSIG
Loading
Personal Weather Stations






























Interactive Weather Map
Tropical Storm Tracking
New forecast layout! Learn more

10-Day Weather Forecast

Advertisements
Track Severe Weather on mobile